Time;durP1;ratioP1;P1;durP2;ratioP2;P2;SDS_P1;SDS_P2;PMS_P1;PMS_P2;Temp;Humidity;BMP_temperature;BMP_pressure;BME280_temperature;BME280_humidity;BME280_pressure;Samples;Min_cycle;Max_cycle;Signal;HPM_P1;HPM_P2
2022/01/05 00:00:24;;;;;;;;;;;;;;;6.13;60.90;99107.97;4957184;28;6878;-72
2022/01/05 00:03:10;;;;;;;;;;;;;;;6.13;61.39;99109.63;4958643;28;6784;-72
2022/01/05 00:05:56;;;;;;;;;;;;;;;6.14;61.42;99108.84;4959115;28;6808;-72
2022/01/05 00:08:42;;;;;;;;;;;;;;;6.12;61.86;99118.94;4952531;28;6876;-72
2022/01/05 00:11:28;;;;;;;;;;;;;;;6.13;61.71;99120.69;4957823;28;6792;-71
2022/01/05 00:14:14;;;;;;;;;;;;;;;6.13;62.12;99115.59;4958156;28;6876;-71
2022/01/05 00:17:00;;;;;;;;;;;;;;;6.17;61.98;99106.44;4964032;28;6844;-71
2022/01/05 00:19:46;;;;;;;;;;;;;;;6.19;61.96;99118.44;4952446;28;6785;-71
2022/01/05 00:22:32;;;;;;;;;;;;;;;6.22;62.11;99116.03;4951089;28;7168;-71
2022/01/05 00:25:18;;;;;;;;;;;;;;;6.25;62.15;99110.19;4950424;28;7055;-71
2022/01/05 00:28:04;;;;;;;;;;;;;;;6.31;62.09;99117.22;4952011;28;6979;-71
2022/01/05 00:30:50;;;;;;;;;;;;;;;6.33;62.33;99113.06;4948040;28;6860;-71
2022/01/05 00:33:36;;;;;;;;;;;;;;;6.36;62.25;99124.25;4954245;28;6796;-71
2022/01/05 00:36:22;;;;;;;;;;;;;;;6.39;61.92;99128.63;4956412;28;7387;-72
2022/01/05 00:39:09;;;;;;;;;;;;;;;6.42;62.40;99131.31;4957953;28;7012;-72
2022/01/05 00:41:55;;;;;;;;;;;;;;;6.44;62.23;99137.31;4959069;28;7462;-73
2022/01/05 00:44:41;;;;;;;;;;;;;;;6.44;62.17;99122.06;4939970;28;6800;-72
2022/01/05 00:47:27;;;;;;;;;;;;;;;6.50;62.80;99114.69;4957084;28;6812;-71
2022/01/05 00:50:13;;;;;;;;;;;;;;;6.55;62.36;99114.00;4952861;28;6808;-74
2022/01/05 00:53:00;;;;;;;;;;;;;;;6.57;62.32;99112.41;4940731;28;6864;-72
2022/01/05 00:55:46;;;;;;;;;;;;;;;6.57;62.40;99112.41;4958558;28;7600;-72
2022/01/05 00:58:33;;;;;;;;;;;;;;;6.56;61.84;99111.53;4958979;28;7465;-72
2022/01/05 01:01:19;;;;;;;;;;;;;;;6.57;62.33;99113.28;4955236;28;6796;-72
2022/01/05 01:04:06;;;;;;;;;;;;;;;6.58;62.42;99127.75;4949350;28;6883;-72
2022/01/05 01:06:52;;;;;;;;;;;;;;;6.61;62.48;99114.28;4953472;28;6815;-72
2022/01/05 01:09:38;;;;;;;;;;;;;;;6.60;62.07;99117.63;4959978;28;6813;-72
2022/01/05 01:12:24;;;;;;;;;;;;;;;6.61;62.50;99121.94;4944289;28;7544;-72
2022/01/05 01:15:11;;;;;;;;;;;;;;;6.63;62.14;99122.84;4958439;28;7339;-72
2022/01/05 01:17:57;;;;;;;;;;;;;;;6.64;62.41;99134.78;4948888;28;6820;-73
2022/01/05 01:20:47;;;;;;;;;;;;;;;6.65;62.66;99133.97;4960058;28;6816;-72
2022/01/05 01:23:33;;;;;;;;;;;;;;;6.66;62.69;99141.69;4957101;28;7014;-72
2022/01/05 01:26:20;;;;;;;;;;;;;;;6.70;62.59;99140.16;4960336;28;6848;-72
2022/01/05 01:29:06;;;;;;;;;;;;;;;6.73;62.06;99145.38;4962103;28;6800;-72
2022/01/05 01:31:52;;;;;;;;;;;;;;;6.73;62.17;99137.72;4961326;28;7518;-72
2022/01/05 01:34:38;;;;;;;;;;;;;;;6.70;61.93;99132.50;4951764;28;6812;-72
2022/01/05 01:37:24;;;;;;;;;;;;;;;6.67;62.22;99143.44;4954440;28;6928;-72
2022/01/05 01:40:10;;;;;;;;;;;;;;;6.63;62.04;99144.09;4960701;28;7470;-72
2022/01/05 01:42:56;;;;;;;;;;;;;;;6.58;61.91;99132.84;4955894;28;6864;-72
2022/01/05 01:45:42;;;;;;;;;;;;;;;6.52;62.30;99145.31;4957638;28;6960;-72
2022/01/05 01:48:28;;;;;;;;;;;;;;;6.47;62.05;99160.38;4959529;28;6856;-72
2022/01/05 01:51:14;;;;;;;;;;;;;;;6.44;62.15;99157.69;4963104;28;6808;-72
2022/01/05 01:54:02;;;;;;;;;;;;;;;6.38;61.61;99154.88;4956772;28;6840;-72
2022/01/05 01:56:50;;;;;;;;;;;;;;;6.34;62.01;99155.53;4954844;28;6922;-72
2022/01/05 01:59:36;;;;;;;;;;;;;;;6.30;61.87;99166.38;4951542;28;7419;-72
2022/01/05 02:02:22;;;;;;;;;;;;;;;6.25;61.94;99167.03;4959100;28;6812;-72
2022/01/05 02:05:08;;;;;;;;;;;;;;;6.20;62.03;99163.44;4953189;28;6860;-72
2022/01/05 02:07:54;;;;;;;;;;;;;;;6.18;62.13;99177.75;4958062;28;7565;-72
2022/01/05 02:10:43;;;;;;;;;;;;;;;6.15;62.03;99176.75;4960382;28;7560;-72
2022/01/05 02:13:29;;;;;;;;;;;;;;;6.11;61.73;99173.19;4956721;28;6816;-72
2022/01/05 02:16:21;;;;;;;;;;;;;;;6.09;62.27;99170.56;4953095;28;6788;-72
2022/01/05 02:19:07;;;;;;;;;;;;;;;6.08;62.14;99178.09;4961888;28;6804;-72
2022/01/05 02:21:53;;;;;;;;;;;;;;;6.05;62.23;99177.97;4957945;28;6915;-72
2022/01/05 02:24:46;;;;;;;;;;;;;;;6.04;62.45;99184.75;4959304;28;6887;-72
2022/01/05 02:27:32;;;;;;;;;;;;;;;6.02;62.34;99188.03;4960771;28;6923;-72
2022/01/05 02:30:27;;;;;;;;;;;;;;;6.00;62.31;99184.50;4961264;28;6828;-72
2022/01/05 02:33:13;;;;;;;;;;;;;;;6.00;62.27;99190.44;4961198;28;6852;-72
2022/01/05 02:36:00;;;;;;;;;;;;;;;6.00;62.42;99190.44;4958274;28;6792;-72
2022/01/05 02:38:49;;;;;;;;;;;;;;;5.98;62.57;99192.06;4944472;28;6912;-72
2022/01/05 02:41:35;;;;;;;;;;;;;;;5.95;62.08;99200.41;4952606;28;7359;-72
2022/01/05 02:44:21;;;;;;;;;;;;;;;5.93;62.15;99207.09;4944112;28;6983;-72
2022/01/05 02:47:07;;;;;;;;;;;;;;;5.91;62.39;99206.16;4950662;28;6793;-72
2022/01/05 02:49:57;;;;;;;;;;;;;;;5.88;62.42;99215.31;4971212;28;6784;-72
2022/01/05 02:52:44;;;;;;;;;;;;;;;5.85;62.32;99218.56;4956302;28;6848;-72
2022/01/05 02:55:30;;;;;;;;;;;;;;;5.82;62.30;99220.97;4959605;28;6808;-72
2022/01/05 02:58:16;;;;;;;;;;;;;;;5.80;62.44;99220.03;4960434;28;6820;-72
2022/01/05 03:01:03;;;;;;;;;;;;;;;5.77;62.76;99224.94;4954055;28;6892;-72
2022/01/05 03:03:49;;;;;;;;;;;;;;;5.75;62.23;99217.28;4962571;28;6797;-72
2022/01/05 03:06:35;;;;;;;;;;;;;;;5.73;61.90;99234.09;4954985;28;6785;-72
2022/01/05 03:09:21;;;;;;;;;;;;;;;5.67;61.77;99232.13;4957701;28;6809;-72
2022/01/05 03:12:08;;;;;;;;;;;;;;;5.65;62.29;99241.34;4958932;28;6812;-72
2022/01/05 03:14:54;;;;;;;;;;;;;;;5.62;61.62;99237.78;4969319;28;6835;-72
2022/01/05 03:17:41;;;;;;;;;;;;;;;5.57;61.74;99245.19;4956318;28;6801;-72
2022/01/05 03:20:29;;;;;;;;;;;;;;;5.53;62.02;99240.75;4963501;28;6872;-72
2022/01/05 03:23:15;;;;;;;;;;;;;;;5.51;61.67;99250.00;4962000;28;7633;-72
2022/01/05 03:26:01;;;;;;;;;;;;;;;5.49;61.73;99254.09;4945959;28;6797;-72
2022/01/05 03:28:47;;;;;;;;;;;;;;;5.44;61.90;99247.94;4961360;28;6979;-72
2022/01/05 03:31:33;;;;;;;;;;;;;;;5.42;61.70;99251.28;4960637;28;7442;-72
2022/01/05 03:34:20;;;;;;;;;;;;;;;5.39;61.71;99255.31;4957568;28;6968;-72
2022/01/05 03:37:06;;;;;;;;;;;;;;;5.37;62.29;99257.78;4960127;28;6820;-72
2022/01/05 03:39:52;;;;;;;;;;;;;;;5.36;61.76;99272.94;4960355;28;6921;-72
2022/01/05 03:42:38;;;;;;;;;;;;;;;5.34;61.83;99272.88;4946089;28;6813;-72
2022/01/05 03:45:24;;;;;;;;;;;;;;;5.32;62.05;99278.66;4959473;28;6840;-72
2022/01/05 03:48:14;;;;;;;;;;;;;;;5.31;61.82;99282.91;4962044;28;6816;-72
2022/01/05 03:51:00;;;;;;;;;;;;;;;5.30;61.78;99295.50;4959071;28;7034;-72
2022/01/05 03:53:45;;;;;;;;;;;;;;;5.27;61.72;99292.03;4959308;28;7571;-72
2022/01/05 03:56:31;;;;;;;;;;;;;;;5.27;62.19;99299.66;4944665;28;6992;-72
2022/01/05 03:59:17;;;;;;;;;;;;;;;5.26;61.71;99304.63;4954312;28;7565;-72
2022/01/05 04:02:03;;;;;;;;;;;;;;;5.26;61.80;99302.09;4944677;28;6857;-72
2022/01/05 04:04:50;;;;;;;;;;;;;;;5.23;62.07;99307.88;4960859;28;6808;-72
2022/01/05 04:07:36;;;;;;;;;;;;;;;5.22;61.95;99318.84;4954476;28;6812;-74
2022/01/05 04:10:22;;;;;;;;;;;;;;;5.22;61.43;99312.91;4953045;28;6915;-72
2022/01/05 04:13:08;;;;;;;;;;;;;;;5.21;61.35;99318.75;4943340;28;7789;-72
2022/01/05 04:15:54;;;;;;;;;;;;;;;5.19;61.58;99331.41;4957711;28;6992;-72
2022/01/05 04:18:40;;;;;;;;;;;;;;;5.17;62.17;99320.28;4948752;28;6796;-72
2022/01/05 04:21:25;;;;;;;;;;;;;;;5.17;61.65;99332.09;4952069;28;7021;-72
2022/01/05 04:24:12;;;;;;;;;;;;;;;5.17;61.67;99334.66;4956104;28;6907;-72
2022/01/05 04:26:58;;;;;;;;;;;;;;;5.16;61.69;99343.06;4966020;28;7169;-72
2022/01/05 04:29:43;;;;;;;;;;;;;;;5.13;61.63;99349.75;4939192;28;6869;-72
2022/01/05 04:32:29;;;;;;;;;;;;;;;5.13;61.82;99343.78;4956140;28;6845;-72
2022/01/05 04:35:15;;;;;;;;;;;;;;;5.12;61.72;99342.03;4948622;28;7134;-72
2022/01/05 04:38:02;;;;;;;;;;;;;;;5.11;61.84;99343.69;4955439;28;6867;-72
2022/01/05 04:40:48;;;;;;;;;;;;;;;5.11;61.34;99343.69;4952797;28;7921;-72
2022/01/05 04:43:34;;;;;;;;;;;;;;;5.11;61.53;99345.38;4942832;28;6817;-72
2022/01/05 04:46:20;;;;;;;;;;;;;;;5.12;61.98;99347.09;4960899;28;6983;-71
2022/01/05 04:49:06;;;;;;;;;;;;;;;5.12;61.48;99348.00;4952604;28;6813;-72
2022/01/05 04:55:53;;;;;;;;;;;;;;;5.07;61.39;99353.59;4954346;28;8149;-72
2022/01/05 04:58:39;;;;;;;;;;;;;;;5.06;61.86;99351.84;4944968;28;6812;-72
2022/01/05 05:01:25;;;;;;;;;;;;;;;5.06;61.25;99365.44;4957520;28;6812;-72
2022/01/05 05:04:11;;;;;;;;;;;;;;;5.05;61.39;99370.41;4958609;28;6824;-72
2022/01/05 05:06:58;;;;;;;;;;;;;;;5.05;61.63;99381.47;4956794;28;6812;-72
2022/01/05 05:09:44;;;;;;;;;;;;;;;5.04;61.40;99377.19;4953684;28;6816;-72
2022/01/05 05:12:30;;;;;;;;;;;;;;;5.05;61.58;99385.66;4953251;28;6812;-72
2022/01/05 05:19:17;;;;;;;;;;;;;;;5.03;61.80;99372.91;4951409;28;7713;-72
2022/01/05 05:22:03;;;;;;;;;;;;;;;5.07;61.60;99374.81;4955342;28;7604;-71
2022/01/05 05:24:50;;;;;;;;;;;;;;;5.11;61.98;99374.16;4953688;28;7098;-71
2022/01/05 05:27:35;;;;;;;;;;;;;;;5.14;61.90;99368.38;4959204;28;7052;-71
2022/01/05 05:31:37;;;;;;;;;;;;;;;5.14;60.96;99376.00;4960071;28;7125;-71
2022/01/05 05:35:42;;;;;;;;;;;;;;;5.10;61.64;99374.09;4961243;28;6812;-72
2022/01/05 05:39:43;;;;;;;;;;;;;;;5.08;61.75;99375.69;4955152;28;6809;-72
2022/01/05 05:43:45;;;;;;;;;;;;;;;5.10;61.90;99372.41;4955137;28;6884;-72
2022/01/05 05:47:46;;;;;;;;;;;;;;;5.12;61.08;99367.44;4952456;28;6986;-72
2022/01/05 05:51:48;;;;;;;;;;;;;;;5.13;60.78;99369.16;4954952;28;7245;-72
2022/01/05 05:55:49;;;;;;;;;;;;;;;5.13;61.25;99380.22;4957864;28;6832;-72
2022/01/05 09:14:04;;;;;;;;;;;;;;;6.83;59.47;99586.41;4961775;28;6758;-71
2022/01/05 09:16:30;;;;;;;;;;;;;;;6.93;58.92;99580.97;4972707;28;6788;-71
2022/01/05 09:18:55;;;;;;;;;;;;;;;7.01;59.29;99577.13;4962384;28;6788;-71
2022/01/05 09:21:21;;;;;;;;;;;;;;;7.11;59.23;99580.13;4963984;28;7012;-71
2022/01/05 09:23:47;;;;;;;;;;;;;;;7.16;58.40;99578.69;4963644;28;6856;-71
2022/01/05 09:26:12;;;;;;;;;;;;;;;7.22;58.29;99576.41;4961828;28;6987;-71
2022/01/05 09:28:43;;;;;;;;;;;;;;;7.27;57.92;99567.34;4964197;28;7145;-71
2022/01/05 09:31:10;;;;;;;;;;;;;;;7.31;58.12;99565.81;4946903;28;7913;-71
2022/01/05 09:33:36;;;;;;;;;;;;;;;7.34;58.72;99578.69;4941664;28;8024;-71
2022/01/05 09:36:11;;;;;;;;;;;;;;;7.37;58.21;99563.53;4975640;28;6864;-71
2022/01/05 09:44:09;;;;;;;;;;;;;;;7.47;57.37;99587.81;4960600;28;6904;-71
2022/01/05 09:47:03;;;;;;;;;;;;;;;7.52;57.25;99605.88;4953442;28;7994;-71
2022/01/05 09:49:38;;;;;;;;;;;;;;;7.53;58.27;99610.16;4963502;28;7022;-71
2022/01/05 09:52:11;;;;;;;;;;;;;;;7.56;57.41;99610.28;4959830;28;6959;-71
2022/01/05 09:54:42;;;;;;;;;;;;;;;7.59;57.92;99606.22;4961103;28;7583;-71
2022/01/05 09:57:14;;;;;;;;;;;;;;;7.63;57.41;99620.00;4946906;28;7163;-71
2022/01/05 09:59:41;;;;;;;;;;;;;;;7.64;57.01;99616.63;4958669;28;7094;-72
2022/01/05 10:02:07;;;;;;;;;;;;;;;7.68;57.96;99620.22;4958127;28;6808;-71
2022/01/05 10:04:36;;;;;;;;;;;;;;;7.69;57.70;99620.28;4956414;28;6808;-71
2022/01/05 10:07:04;;;;;;;;;;;;;;;7.71;57.41;99626.34;4958065;28;7081;-71
2022/01/05 10:09:30;;;;;;;;;;;;;;;7.72;57.79;99629.75;4961449;28;6808;-71
2022/01/05 10:11:55;;;;;;;;;;;;;;;7.74;57.05;99625.63;4942943;28;7065;-71
2022/01/05 10:14:21;;;;;;;;;;;;;;;7.77;57.83;99629.19;4962263;28;7422;-71
2022/01/05 10:17:30;;;;;;;;;;;;;;;7.80;56.87;99636.09;4961993;28;6792;-71
2022/01/05 10:20:07;;;;;;;;;;;;;;;7.81;57.74;99626.78;4930698;28;8283;-71
2022/01/05 10:22:39;;;;;;;;;;;;;;;7.82;57.13;99616.63;4960258;28;7112;-71
2022/01/05 10:25:13;;;;;;;;;;;;;;;7.85;57.91;99643.97;4961577;28;6999;-71
2022/01/05 10:27:39;;;;;;;;;;;;;;;7.89;57.76;99628.00;4953959;28;7156;-71
2022/01/05 10:30:13;;;;;;;;;;;;;;;7.96;57.15;99636.81;4961908;28;6875;-72
2022/01/05 10:32:42;;;;;;;;;;;;;;;8.02;56.97;99647.31;4961416;28;7269;-71
2022/01/05 10:35:08;;;;;;;;;;;;;;;8.09;57.38;99636.56;4975591;28;6991;-71
2022/01/05 10:37:37;;;;;;;;;;;;;;;8.15;57.52;99644.50;4961037;28;7011;-71
2022/01/05 10:40:14;;;;;;;;;;;;;;;8.27;56.95;99643.31;4961376;28;7166;-71
2022/01/05 10:42:42;;;;;;;;;;;;;;;8.36;56.73;99651.38;4961203;28;6817;-71
2022/01/05 10:45:14;;;;;;;;;;;;;;;8.42;56.90;99655.88;4944296;28;7237;-71
2022/01/05 10:47:41;;;;;;;;;;;;;;;8.43;56.60;99640.66;4960681;28;6816;-72
2022/01/05 10:50:20;;;;;;;;;;;;;;;8.44;57.46;99646.59;4954046;28;6883;-71
2022/01/05 10:52:56;;;;;;;;;;;;;;;8.40;56.83;99655.84;4956429;28;7259;-71
2022/01/05 10:55:26;;;;;;;;;;;;;;;8.39;55.67;99654.06;4941661;28;7215;-71
2022/01/05 10:58:08;;;;;;;;;;;;;;;8.37;55.98;99667.59;4957369;28;6950;-71
2022/01/05 11:00:40;;;;;;;;;;;;;;;8.34;56.03;99673.44;4959365;28;7169;-71
2022/01/05 11:03:30;;;;;;;;;;;;;;;8.31;56.77;99670.75;4958250;28;6796;-71
2022/01/05 11:06:03;;;;;;;;;;;;;;;8.28;56.58;99676.56;4957723;28;7416;-71
2022/01/05 11:09:04;;;;;;;;;;;;;;;8.27;56.11;99684.16;4957511;28;6955;-71
2022/01/05 11:11:38;;;;;;;;;;;;;;;8.27;57.49;99694.38;4973982;28;6883;-71
2022/01/05 11:14:17;;;;;;;;;;;;;;;8.29;57.48;99687.66;4957865;28;7212;-71
2022/01/05 11:16:51;;;;;;;;;;;;;;;8.33;56.88;99684.44;4956793;28;6804;-71
2022/01/05 11:19:23;;;;;;;;;;;;;;;8.39;57.93;99684.72;4958014;28;7162;-71
2022/01/05 11:22:03;;;;;;;;;;;;;;;8.50;57.76;99685.19;4960009;28;6974;-71
2022/01/05 11:24:47;;;;;;;;;;;;;;;8.66;57.39;99691.91;4957856;28;7029;-71
2022/01/05 11:27:22;;;;;;;;;;;;;;;8.82;58.19;99682.34;4959880;28;6812;-71
2022/01/05 11:29:48;;;;;;;;;;;;;;;8.96;57.31;99683.81;4958206;28;7339;-71
2022/01/05 11:32:20;;;;;;;;;;;;;;;9.08;57.01;99682.59;4977479;28;7146;-71
2022/01/05 11:34:47;;;;;;;;;;;;;;;9.19;56.81;99685.59;4942196;28;7933;-71
2022/01/05 11:37:14;;;;;;;;;;;;;;;9.25;56.00;99688.44;4954375;28;6896;-71
2022/01/05 11:39:46;;;;;;;;;;;;;;;9.27;56.85;99680.03;4959821;28;7231;-71
2022/01/05 11:42:18;;;;;;;;;;;;;;;9.27;56.61;99674.91;4955048;28;6963;-71
2022/01/05 11:44:51;;;;;;;;;;;;;;;9.25;56.18;99679.06;4960882;28;6797;-71
2022/01/05 11:47:21;;;;;;;;;;;;;;;9.19;55.65;99678.81;4975758;28;7093;-72
2022/01/05 11:49:47;;;;;;;;;;;;;;;9.11;56.17;99675.91;4960197;28;8004;-71
2022/01/05 11:52:12;;;;;;;;;;;;;;;9.03;55.99;99678.16;4954998;28;7137;-71
2022/01/05 11:54:38;;;;;;;;;;;;;;;8.98;56.02;99682.22;4923481;28;7234;-71
2022/01/05 11:57:12;;;;;;;;;;;;;;;8.93;56.01;99682.81;4957077;28;6868;-71
2022/01/05 11:59:41;;;;;;;;;;;;;;;8.85;57.17;99665.47;4942523;28;7219;-71
2022/01/05 12:02:12;;;;;;;;;;;;;;;8.85;56.53;99680.81;4941715;28;6980;-71
2022/01/05 12:04:56;;;;;;;;;;;;;;;8.90;56.29;99683.56;4957058;28;7016;-71
2022/01/05 12:07:46;;;;;;;;;;;;;;;8.92;57.05;99681.94;4958534;28;6900;-71
2022/01/05 12:10:22;;;;;;;;;;;;;;;8.93;55.88;99688.81;4957072;28;7857;-71
2022/01/05 12:13:05;;;;;;;;;;;;;;;8.98;56.39;99678.78;4973111;28;6820;-71
2022/01/05 12:15:45;;;;;;;;;;;;;;;8.99;56.79;99677.97;4956759;28;7031;-71
2022/01/05 12:18:30;;;;;;;;;;;;;;;9.00;57.32;99680.59;4955883;28;6948;-71
2022/01/05 12:20:58;;;;;;;;;;;;;;;9.05;56.45;99677.34;4959011;28;6812;-71
2022/01/05 12:23:25;;;;;;;;;;;;;;;9.09;56.22;99677.53;4959095;28;7158;-71
2022/01/05 12:26:03;;;;;;;;;;;;;;;9.13;56.94;99676.00;4961217;28;6966;-71
2022/01/05 12:28:48;;;;;;;;;;;;;;;9.18;57.07;99687.31;4959166;28;7007;-71
2022/01/05 12:31:14;;;;;;;;;;;;;;;9.23;56.08;99688.34;4954191;28;6820;-71
2022/01/05 12:33:49;;;;;;;;;;;;;;;9.27;56.59;99694.47;4942395;28;7198;-71
2022/01/05 12:36:38;;;;;;;;;;;;;;;9.31;56.27;99686.09;4958167;28;6816;-71
2022/01/05 12:39:06;;;;;;;;;;;;;;;9.33;56.22;99698.97;4940190;28;7287;-71
2022/01/05 12:41:38;;;;;;;;;;;;;;;9.36;56.58;99704.19;4972558;28;7030;-71
2022/01/05 12:44:25;;;;;;;;;;;;;;;9.40;55.69;99713.78;4957496;28;7301;-71
2022/01/05 12:46:53;;;;;;;;;;;;;;;9.45;56.25;99709.69;4959248;28;6823;-71
2022/01/05 12:49:32;;;;;;;;;;;;;;;9.51;55.91;99703.97;4959164;28;7375;-71
2022/01/05 12:51:58;;;;;;;;;;;;;;;9.55;56.16;99710.97;4955308;28;6871;-72
2022/01/05 12:54:28;;;;;;;;;;;;;;;9.57;55.25;99709.34;4953800;28;7327;-71
2022/01/05 12:57:05;;;;;;;;;;;;;;;9.58;55.98;99719.66;4956683;28;6827;-71
2022/01/05 12:59:36;;;;;;;;;;;;;;;9.57;56.11;99712.78;4940419;28;7189;-71
2022/01/05 13:02:07;;;;;;;;;;;;;;;9.57;55.34;99720.47;4959344;28;6832;-71
2022/01/05 13:04:36;;;;;;;;;;;;;;;9.58;56.46;99719.66;4956730;28;7035;-71
2022/01/05 13:07:06;;;;;;;;;;;;;;;9.58;55.28;99711.97;4943747;28;6816;-71
2022/01/05 13:09:39;;;;;;;;;;;;;;;9.58;55.75;99704.31;4961502;28;7136;-71
2022/01/05 13:12:09;;;;;;;;;;;;;;;9.58;55.76;99703.41;4958356;28;7304;-71
2022/01/05 13:14:41;;;;;;;;;;;;;;;9.58;55.69;99709.41;4961901;28;7315;-71
2022/01/05 13:17:19;;;;;;;;;;;;;;;9.58;55.29;99711.09;4961084;28;8117;-71
2022/01/05 13:20:03;;;;;;;;;;;;;;;9.59;55.95;99720.50;4957943;28;6970;-71
2022/01/05 13:22:43;;;;;;;;;;;;;;;9.63;56.17;99717.28;4961297;28;7192;-71
2022/01/05 13:25:22;;;;;;;;;;;;;;;9.64;55.69;99723.25;4958157;28;6907;-71
2022/01/05 13:27:50;;;;;;;;;;;;;;;9.64;56.10;99725.81;4975125;28;6967;-71
2022/01/05 13:30:25;;;;;;;;;;;;;;;9.66;54.74;99729.34;4945394;28;6884;-71
2022/01/05 13:33:00;;;;;;;;;;;;;;;9.64;55.84;99731.81;4958148;28;6823;-72
2022/01/05 13:35:37;;;;;;;;;;;;;;;9.63;55.39;99730.06;4936911;28;7068;-71
2022/01/05 13:38:12;;;;;;;;;;;;;;;9.61;54.65;99712.91;4960378;28;7230;-70
2022/01/05 13:40:40;;;;;;;;;;;;;;;9.55;54.89;99716.94;4961185;28;8211;-70
2022/01/05 13:43:12;;;;;;;;;;;;;;;9.54;55.28;99725.44;4956357;28;7053;-71
2022/01/05 13:45:49;;;;;;;;;;;;;;;9.51;55.41;99738.09;4957731;28;7159;-71
2022/01/05 13:48:20;;;;;;;;;;;;;;;9.52;55.53;99742.41;4951575;28;7258;-72
2022/01/05 13:50:52;;;;;;;;;;;;;;;9.53;54.98;99749.28;4957627;28;6899;-71
2022/01/05 13:53:24;;;;;;;;;;;;;;;9.56;54.70;99749.41;4958736;28;6816;-71
2022/01/05 13:55:53;;;;;;;;;;;;;;;9.58;54.94;99750.34;4958540;28;7209;-71
2022/01/05 13:58:25;;;;;;;;;;;;;;;9.58;55.62;99752.91;4956625;28;7291;-71
2022/01/05 14:01:08;;;;;;;;;;;;;;;9.59;54.42;99754.66;4957701;28;6816;-71
2022/01/05 14:03:48;;;;;;;;;;;;;;;9.58;55.29;99752.03;4961646;28;6977;-71
2022/01/05 14:06:28;;;;;;;;;;;;;;;9.57;55.42;99756.28;4957793;28;7272;-71
2022/01/05 14:08:56;;;;;;;;;;;;;;;9.57;55.18;99740.94;4956757;28;6804;-71
2022/01/05 14:11:23;;;;;;;;;;;;;;;9.56;55.15;99757.09;4959862;28;6842;-71
2022/01/05 14:13:55;;;;;;;;;;;;;;;9.55;54.83;99763.00;4958121;28;6963;-71
2022/01/05 14:16:39;;;;;;;;;;;;;;;9.52;54.42;99755.19;4967944;28;6840;-71
2022/01/05 14:19:23;;;;;;;;;;;;;;;9.49;55.31;99757.63;4957183;28;6964;-71
2022/01/05 14:21:50;;;;;;;;;;;;;;;9.48;55.00;99760.13;4943547;28;6825;-71
2022/01/05 14:24:28;;;;;;;;;;;;;;;9.47;55.15;99749.03;4956169;28;6891;-71
2022/01/05 14:26:53;;;;;;;;;;;;;;;9.45;54.79;99760.88;4958944;28;7047;-71
2022/01/05 14:29:25;;;;;;;;;;;;;;;9.44;54.80;99774.47;4960552;28;7178;-71
2022/01/05 14:31:52;;;;;;;;;;;;;;;9.44;54.72;99780.47;4961373;28;6824;-71
2022/01/05 14:34:23;;;;;;;;;;;;;;;9.40;55.78;99770.91;4957119;28;6872;-71
2022/01/05 14:37:02;;;;;;;;;;;;;;;9.40;55.71;99787.94;4962948;28;7249;-71
2022/01/05 14:39:38;;;;;;;;;;;;;;;9.40;55.24;99793.06;4951695;28;6839;-71
2022/01/05 14:42:09;;;;;;;;;;;;;;;9.39;55.21;99796.44;4972469;28;6812;-71
2022/01/05 14:44:37;;;;;;;;;;;;;;;9.40;55.21;99787.94;4936143;28;6960;-71
2022/01/05 14:47:09;;;;;;;;;;;;;;;9.39;54.96;99802.41;4954684;28;6904;-71
2022/01/05 14:49:40;;;;;;;;;;;;;;;9.40;55.15;99804.16;4958371;28;7266;-71
2022/01/05 14:52:11;;;;;;;;;;;;;;;9.36;56.18;99804.84;4952447;28;7139;-71
2022/01/05 14:54:39;;;;;;;;;;;;;;;9.34;55.47;99803.00;4962313;28;8003;-71
2022/01/05 14:57:16;;;;;;;;;;;;;;;9.27;55.31;99818.13;4957437;28;7003;-71
2022/01/05 14:59:44;;;;;;;;;;;;;;;9.24;55.57;99815.41;4953194;28;7429;-72
2022/01/05 15:02:10;;;;;;;;;;;;;;;9.20;56.57;99827.97;4958886;28;7261;-71
2022/01/05 15:04:35;;;;;;;;;;;;;;;9.16;56.10;99827.84;4969718;28;6859;-71
2022/01/05 15:07:03;;;;;;;;;;;;;;;9.14;57.14;99833.69;4938465;28;8318;-71
2022/01/05 15:09:28;;;;;;;;;;;;;;;9.09;56.36;99832.63;4938882;28;7084;-71
2022/01/05 15:11:56;;;;;;;;;;;;;;;9.07;56.84;99839.34;4955473;28;6839;-71
2022/01/05 15:14:22;;;;;;;;;;;;;;;9.06;57.11;99847.81;4959747;28;6816;-71
2022/01/05 15:16:48;;;;;;;;;;;;;;;9.03;57.27;99849.44;4954132;28;6859;-71
2022/01/05 15:19:14;;;;;;;;;;;;;;;9.00;57.10;99846.75;4955768;28;6833;-71
2022/01/05 15:21:40;;;;;;;;;;;;;;;8.97;56.91;99854.25;4955959;28;6808;-71
2022/01/05 15:24:06;;;;;;;;;;;;;;;8.95;57.06;99863.53;4960183;28;6954;-71
2022/01/05 15:26:34;;;;;;;;;;;;;;;8.94;57.01;99863.50;4945732;28;7396;-71
2022/01/05 15:29:00;;;;;;;;;;;;;;;8.92;58.18;99865.97;4953733;28;6807;-71
2022/01/05 15:31:26;;;;;;;;;;;;;;;8.92;58.18;99865.97;4961320;28;6796;-71
2022/01/05 15:33:52;;;;;;;;;;;;;;;8.92;57.65;99876.19;4957202;28;6793;-71
2022/01/05 15:36:18;;;;;;;;;;;;;;;8.92;58.51;99880.41;4956259;28;7921;-71
2022/01/05 15:38:44;;;;;;;;;;;;;;;8.92;58.25;99882.97;4955837;28;6816;-71
2022/01/05 15:41:11;;;;;;;;;;;;;;;8.91;58.11;99883.78;4957003;28;6780;-71
2022/01/05 15:43:37;;;;;;;;;;;;;;;8.91;58.18;99883.78;4958397;28;6812;-71
2022/01/05 15:46:04;;;;;;;;;;;;;;;8.92;57.93;99896.63;4954584;28;7235;-71
2022/01/05 15:48:30;;;;;;;;;;;;;;;8.91;58.36;99902.56;4957614;28;7077;-71
2022/01/05 15:50:56;;;;;;;;;;;;;;;8.91;58.06;99902.56;4951779;28;6970;-71
2022/01/05 15:53:24;;;;;;;;;;;;;;;8.92;58.46;99911.97;4960879;28;6820;-71
2022/01/05 15:56:07;;;;;;;;;;;;;;;8.92;58.42;99909.41;4943066;28;6812;-71
2022/01/05 16:03:45;;;;;;;;;;;;;;;8.93;59.16;99929.06;4953945;28;7007;-71
2022/01/05 16:06:17;;;;;;;;;;;;;;;8.94;58.43;99929.94;4964251;28;7432;-71
2022/01/05 16:08:42;;;;;;;;;;;;;;;8.93;59.28;99918.84;4951194;28;7670;-71
2022/01/05 16:11:09;;;;;;;;;;;;;;;8.93;57.90;99933.28;4954814;28;6792;-71
2022/01/05 16:13:35;;;;;;;;;;;;;;;8.92;59.14;99934.09;4954153;28;6796;-71
2022/01/05 16:16:01;;;;;;;;;;;;;;;8.92;58.70;99936.63;4953244;28;7353;-71
2022/01/05 16:18:26;;;;;;;;;;;;;;;8.93;58.95;99941.84;4956437;28;6823;-71
2022/01/05 16:20:52;;;;;;;;;;;;;;;8.91;57.93;99945.13;4953837;28;6886;-71
2022/01/05 16:23:18;;;;;;;;;;;;;;;8.92;59.17;99968.19;4950131;28;6968;-71
2022/01/05 16:25:48;;;;;;;;;;;;;;;8.90;58.48;99972.38;4951895;28;7153;-71
2022/01/05 16:28:14;;;;;;;;;;;;;;;8.90;58.24;99969.81;4935566;28;7319;-71
2022/01/05 16:30:41;;;;;;;;;;;;;;;8.87;58.47;99967.97;4938189;28;6788;-70
2022/01/05 16:33:06;;;;;;;;;;;;;;;8.87;59.04;99975.66;4954488;28;6975;-71
2022/01/05 16:35:33;;;;;;;;;;;;;;;8.85;58.88;99972.16;4954712;28;7405;-71
2022/01/05 16:38:00;;;;;;;;;;;;;;;8.84;58.88;99982.28;4954013;28;7271;-71
2022/01/05 16:40:27;;;;;;;;;;;;;;;8.82;58.39;99974.53;4958538;28;6804;-71
2022/01/05 16:42:53;;;;;;;;;;;;;;;8.83;59.45;99985.66;4973154;28;6804;-71
2022/01/05 16:45:19;;;;;;;;;;;;;;;8.80;59.16;99988.94;4955051;28;6812;-71
2022/01/05 16:47:44;;;;;;;;;;;;;;;8.79;59.13;99989.72;4959833;28;6887;-71
2022/01/05 16:50:10;;;;;;;;;;;;;;;8.80;59.58;99998.28;4941505;28;6834;-71
2022/01/05 16:52:36;;;;;;;;;;;;;;;8.80;59.19;100011.94;4938686;28;6796;-71
2022/01/05 16:55:12;;;;;;;;;;;;;;;8.79;59.50;100009.28;4957994;28;6784;-72
2022/01/05 17:00:25;;;;;;;;;;;;;;;8.75;59.17;100003.19;4935986;28;7370;-71
2022/01/05 17:02:57;;;;;;;;;;;;;;;8.73;58.46;100000.53;4955879;28;7039;-71
2022/01/05 17:05:24;;;;;;;;;;;;;;;8.73;59.62;99992.88;4956670;28;7031;-71
2022/01/05 17:07:51;;;;;;;;;;;;;;;8.72;59.19;100010.66;4955863;28;6868;-71
2022/01/05 17:10:16;;;;;;;;;;;;;;;8.71;58.98;100022.59;4923673;28;7272;-71
2022/01/05 17:12:42;;;;;;;;;;;;;;;8.70;58.81;100022.50;4954494;28;6784;-71
2022/01/05 17:15:10;;;;;;;;;;;;;;;8.70;59.52;100033.59;4956773;28;6867;-71
2022/01/05 17:17:37;;;;;;;;;;;;;;;8.70;58.62;100043.84;4956874;28;6812;-71
2022/01/05 17:20:05;;;;;;;;;;;;;;;8.70;59.55;100032.72;4952547;28;6820;-71
2022/01/05 17:22:32;;;;;;;;;;;;;;;8.70;59.05;100033.59;4957926;28;6808;-71
2022/01/05 17:24:57;;;;;;;;;;;;;;;8.70;59.15;100050.59;4940874;28;7031;-71
2022/01/05 17:27:23;;;;;;;;;;;;;;;8.72;60.20;100041.34;4956249;28;7408;-71
2022/01/05 17:29:49;;;;;;;;;;;;;;;8.71;59.75;100054.91;4960799;28;7275;-71
2022/01/05 17:32:14;;;;;;;;;;;;;;;8.71;59.78;100050.69;4958872;28;7341;-71
2022/01/05 17:34:40;;;;;;;;;;;;;;;8.71;59.69;100060.91;4959647;28;7003;-71
2022/01/05 17:37:06;;;;;;;;;;;;;;;8.73;60.33;100058.41;4957429;28;6783;-71
2022/01/05 17:39:33;;;;;;;;;;;;;;;8.73;59.93;100069.53;4942761;28;7186;-71
2022/01/05 17:42:00;;;;;;;;;;;;;;;8.74;59.44;100068.72;4957128;28;6868;-71
2022/01/05 17:44:26;;;;;;;;;;;;;;;8.72;60.29;100057.56;4958622;28;6807;-71